Time;durP1;ratioP1;P1;durP2;ratioP2;P2;SDS_P1;SDS_P2;PMS_P1;PMS_P2;Temp;Humidity;BMP_temperature;BMP_pressure;BME280_temperature;BME280_humidity;BME280_pressure;Samples;Min_cycle;Max_cycle;Signal;HPM_P1;HPM_P2
2021/04/22 00:00:40;;;;;;;10.52;7.45;;;;;;;7.42;58.29;99315.19;5061684;28;20037;-54
2021/04/22 00:03:06;;;;;;;12.55;7.20;;;;;;;7.64;58.47;99356.19;5061901;28;20032;-54
2021/04/22 00:05:40;;;;;;;8.65;7.18;;;;;;;7.33;59.06;99316.72;5053332;28;20045;-53
2021/04/22 00:08:07;;;;;;;9.13;6.78;;;;;;;7.60;58.82;99368.91;5052539;28;20535;-54
2021/04/22 00:10:40;;;;;;;11.50;7.55;;;;;;;7.60;59.41;99359.06;5062217;28;20156;-55
2021/04/22 00:13:06;;;;;;;9.57;7.47;;;;;;;7.04;59.06;99272.72;5061568;28;20040;-55
2021/04/22 00:15:31;;;;;;;10.68;7.40;;;;;;;7.57;58.69;99361.97;5053606;28;20857;-54
2021/04/22 00:17:57;;;;;;;10.63;7.35;;;;;;;7.53;58.94;99360.50;5065907;28;20040;-52
2021/04/22 00:20:24;;;;;;;9.35;7.45;;;;;;;7.46;59.07;99352.13;5055021;28;20037;-54
2021/04/22 00:22:50;;;;;;;8.93;7.53;;;;;;;7.49;59.26;99359.06;5058980;28;20037;-52
2021/04/22 00:25:16;;;;;;;9.60;8.05;;;;;;;7.51;59.36;99361.59;5059536;28;20044;-53
2021/04/22 00:27:41;;;;;;;11.55;8.02;;;;;;;7.51;59.51;99357.13;5065171;28;20094;-51
2021/04/22 00:30:11;;;;;;;10.40;8.20;;;;;;;7.53;59.35;99364.97;5053941;28;20033;-53
2021/04/22 00:32:37;;;;;;;10.85;7.38;;;;;;;7.50;59.61;99363.41;5061060;28;20052;-53
2021/04/22 00:35:04;;;;;;;10.43;7.90;;;;;;;7.50;59.63;99371.41;5059412;28;20118;-55
2021/04/22 00:37:30;;;;;;;12.63;7.97;;;;;;;7.49;59.14;99356.38;5052764;28;20044;-52
2021/04/22 00:40:15;;;;;;;10.98;8.20;;;;;;;7.51;59.74;99367.78;5046189;28;20034;-51
2021/04/22 00:42:41;;;;;;;10.60;7.80;;;;;;;7.47;59.65;99374.28;5069180;28;20123;-56
2021/04/22 00:45:07;;;;;;;10.88;7.63;;;;;;;7.48;59.54;99376.00;5056305;28;20125;-55
2021/04/22 00:47:32;;;;;;;8.23;6.85;;;;;;;7.18;59.56;99324.03;5051351;28;20494;-54
2021/04/22 00:49:58;;;;;;;10.80;8.30;;;;;;;7.42;59.44;99360.47;5063669;28;20135;-52
2021/04/22 00:52:25;;;;;;;10.10;8.38;;;;;;;7.24;59.63;99338.72;5062502;28;20032;-56
2021/04/22 00:54:50;;;;;;;11.32;7.97;;;;;;;7.23;59.57;99332.53;5058819;28;20028;-56
2021/04/22 00:57:15;;;;;;;10.77;8.00;;;;;;;7.53;59.80;99381.81;5053740;28;20119;-54
2021/04/22 00:59:41;;;;;;;12.68;8.70;;;;;;;7.45;59.92;99382.41;5065942;28;20040;-49
2021/04/22 01:02:12;;;;;;;9.68;8.00;;;;;;;7.11;59.71;99317.50;5052745;28;20024;-53
2021/04/22 01:04:39;;;;;;;11.13;8.15;;;;;;;7.55;59.56;99384.34;5060673;28;20064;-55
2021/04/22 01:07:04;;;;;;;10.18;8.38;;;;;;;7.52;59.73;99390.78;5058988;28;20488;-55
2021/04/22 01:09:30;;;;;;;10.25;8.27;;;;;;;7.54;59.91;99388.84;5064116;28;20032;-50
2021/04/22 01:11:56;;;;;;;10.20;8.20;;;;;;;7.16;60.06;99334.81;5052330;28;20040;-52
2021/04/22 01:14:22;;;;;;;9.60;8.32;;;;;;;7.52;60.29;99398.78;5061663;28;20041;-51
2021/04/22 01:16:49;;;;;;;10.88;8.20;;;;;;;7.48;60.09;99378.66;5058383;28;20039;-57
2021/04/22 01:19:15;;;;;;;10.20;8.07;;;;;;;7.12;60.26;99324.50;5066162;28;20108;-55
2021/04/22 01:21:41;;;;;;;10.85;7.68;;;;;;;7.54;59.94;99394.19;5052504;28;20044;-53
2021/04/22 01:24:09;;;;;;;10.10;8.23;;;;;;;7.53;60.42;99395.16;5064692;28;20132;-57
2021/04/22 01:26:35;;;;;;;10.35;8.55;;;;;;;7.49;60.26;99387.50;5055027;28;20075;-53
2021/04/22 01:29:01;;;;;;;13.15;8.45;;;;;;;7.51;60.46;99390.88;5057098;28;20528;-50
2021/04/22 01:31:27;;;;;;;14.07;8.82;;;;;;;7.44;60.16;99387.81;5064124;28;20047;-50
2021/04/22 01:34:04;;;;;;;10.00;8.43;;;;;;;7.56;60.51;99405.56;5072077;28;20055;-49
2021/04/22 01:36:35;;;;;;;11.15;8.55;;;;;;;7.56;60.45;99413.56;5063861;28;20087;-51
2021/04/22 01:39:03;;;;;;;12.00;9.18;;;;;;;7.23;60.16;99364.47;5058771;28;20021;-55
2021/04/22 01:41:29;;;;;;;12.48;8.45;;;;;;;7.57;60.10;99404.59;5066865;28;20040;-55
2021/04/22 01:43:54;;;;;;;11.55;8.70;;;;;;;7.55;60.19;99401.22;5071966;28;20039;-54
2021/04/22 01:46:20;;;;;;;9.98;8.30;;;;;;;7.54;60.46;99398.66;5066292;28;20037;-50
2021/04/22 01:48:45;;;;;;;11.40;8.88;;;;;;;7.42;60.41;99387.97;5061654;28;20036;-52
2021/04/22 01:51:11;;;;;;;12.25;9.20;;;;;;;7.47;60.40;99401.78;5063040;28;20479;-53
2021/04/22 01:53:36;;;;;;;10.73;8.40;;;;;;;7.49;60.80;99407.00;5054333;28;20044;-54
2021/04/22 01:56:02;;;;;;;10.63;8.35;;;;;;;7.47;60.82;99407.09;5067388;28;20116;-54
2021/04/22 01:58:28;;;;;;;12.30;9.02;;;;;;;7.30;60.47;99370.22;5058915;28;20055;-53
2021/04/22 02:00:56;;;;;;;11.70;9.00;;;;;;;7.49;60.73;99412.31;5069524;28;20472;-55
2021/04/22 02:03:23;;;;;;;14.85;8.40;;;;;;;7.42;61.07;99400.41;5057636;28;20059;-52
2021/04/22 02:05:49;;;;;;;11.23;8.70;;;;;;;7.44;60.99;99410.00;5067889;28;20128;-53
2021/04/22 02:08:15;;;;;;;10.50;8.25;;;;;;;7.32;60.87;99390.44;5056874;28;20111;-52
2021/04/22 02:10:43;;;;;;;15.15;8.93;;;;;;;7.43;61.35;99407.44;5063290;28;20029;-54
2021/04/22 02:13:10;;;;;;;12.18;9.20;;;;;;;7.41;60.99;99407.56;5064635;28;20029;-53
2021/04/22 02:15:36;;;;;;;12.23;8.77;;;;;;;7.42;61.18;99403.94;5055772;28;20087;-54
2021/04/22 02:18:02;;;;;;;10.55;8.90;;;;;;;7.45;61.33;99414.34;5067784;28;20134;-50
2021/04/22 02:20:28;;;;;;;13.15;9.32;;;;;;;7.40;61.13;99413.00;5056944;28;20055;-54
2021/04/22 02:22:54;;;;;;;12.02;9.23;;;;;;;7.35;61.27;99402.66;5060453;28;20123;-52
2021/04/22 02:25:23;;;;;;;11.48;8.85;;;;;;;7.42;61.24;99416.38;5057851;28;20032;-53
2021/04/22 02:27:49;;;;;;;11.10;8.93;;;;;;;7.46;61.27;99426.72;5067564;28;20037;-57
2021/04/22 02:30:18;;;;;;;13.73;9.80;;;;;;;7.53;61.53;99424.44;5056447;28;20059;-54
2021/04/22 02:32:44;;;;;;;10.65;9.45;;;;;;;7.52;61.52;99432.53;5063892;28;20395;-51
2021/04/22 02:35:12;;;;;;;12.13;9.75;;;;;;;7.54;61.22;99420.81;5059152;28;20059;-51
2021/04/22 02:37:37;;;;;;;13.25;9.93;;;;;;;7.43;61.70;99407.44;5067665;28;20041;-53
2021/04/22 02:40:12;;;;;;;14.95;9.95;;;;;;;7.52;62.31;99425.41;5053426;28;20395;-57
2021/04/22 02:42:38;;;;;;;18.70;10.55;;;;;;;7.47;61.90;99430.22;5059444;28;20429;-54
2021/04/22 02:45:12;;;;;;;12.90;10.30;;;;;;;7.40;62.16;99428.97;5062961;28;20056;-51
2021/04/22 02:47:38;;;;;;;17.80;11.50;;;;;;;6.99;62.35;99380.47;5053409;28;20530;-53
2021/04/22 02:50:06;;;;;;;17.48;10.88;;;;;;;7.25;62.22;99426.50;5038544;28;20024;-51
2021/04/22 02:52:32;;;;;;;13.05;10.50;;;;;;;7.26;62.42;99422.88;5063390;28;20033;-54
2021/04/22 02:54:58;;;;;;;16.52;10.45;;;;;;;6.96;62.57;99381.53;5050813;28;20039;-54
2021/04/22 02:57:23;;;;;;;16.52;11.35;;;;;;;7.22;62.95;99432.00;5057630;28;20480;-52
2021/04/22 02:59:49;;;;;;;12.60;10.20;;;;;;;7.17;62.75;99432.38;5067208;28;20616;-52
2021/04/22 03:02:14;;;;;;;14.15;11.50;;;;;;;7.25;63.06;99447.78;5055420;28;20037;-53
2021/04/22 03:04:40;;;;;;;12.85;10.32;;;;;;;7.17;62.89;99426.19;5059177;28;20558;-54
2021/04/22 03:07:05;;;;;;;12.27;10.50;;;;;;;7.19;63.08;99437.56;5058815;28;20051;-51
2021/04/22 03:09:30;;;;;;;13.05;10.93;;;;;;;7.20;63.23;99436.59;5048284;28;20078;-50
2021/04/22 03:11:56;;;;;;;12.18;10.43;;;;;;;7.18;63.32;99447.38;5054525;28;20076;-51
2021/04/22 03:14:21;;;;;;;13.52;10.80;;;;;;;7.11;63.73;99442.63;5061869;28;20071;-53
2021/04/22 03:16:47;;;;;;;14.00;11.07;;;;;;;7.17;63.64;99448.34;5069556;28;20041;-50
2021/04/22 03:19:12;;;;;;;13.10;10.55;;;;;;;7.20;63.39;99455.25;5056424;28;20037;-52
2021/04/22 03:21:38;;;;;;;14.38;11.13;;;;;;;7.26;63.12;99465.47;5067280;28;20036;-52
2021/04/22 03:24:04;;;;;;;13.52;11.40;;;;;;;7.38;63.02;99460.19;5053405;28;20032;-54
2021/04/22 03:26:29;;;;;;;14.65;11.52;;;;;;;7.39;63.00;99448.59;5061599;28;20067;-57
2021/04/22 03:28:54;;;;;;;16.90;11.77;;;;;;;7.63;62.51;99447.72;5060959;28;20093;-52
2021/04/22 03:31:20;;;;;;;14.23;10.68;;;;;;;7.94;61.61;99456.06;5056076;28;20373;-55
2021/04/22 03:33:45;;;;;;;17.73;11.57;;;;;;;7.88;60.87;99391.59;5066392;28;20147;-58
2021/04/22 03:36:11;;;;;;;13.65;11.05;;;;;;;8.69;59.99;99453.94;5054549;28;20036;-58
2021/04/22 03:38:36;;;;;;;13.88;11.00;;;;;;;9.27;58.14;99448.44;5061341;28;20044;-58
2021/04/22 03:41:02;;;;;;;14.35;10.50;;;;;;;10.50;55.21;99456.16;5062039;28;20036;-57
2021/04/22 03:43:28;;;;;;;14.60;10.30;;;;;;;11.79;52.07;99469.78;5054885;28;20120;-57
2021/04/22 03:45:53;;;;;;;12.20;9.60;;;;;;;12.81;49.09;99451.41;5054684;28;20045;-53
2021/04/22 03:48:19;;;;;;;11.98;9.63;;;;;;;13.70;47.05;99459.00;5056367;28;20118;-53
2021/04/22 03:50:44;;;;;;;11.77;9.73;;;;;;;14.40;45.24;99466.31;5060912;28;20175;-53
2021/04/22 03:53:10;;;;;;;10.68;9.15;;;;;;;14.97;43.60;99448.84;5062704;28;20032;-52
2021/04/22 03:55:36;;;;;;;10.00;8.60;;;;;;;15.76;42.09;99451.22;5052170;28;20037;-52
2021/04/22 03:58:01;;;;;;;11.43;9.40;;;;;;;16.44;40.44;99456.50;5059547;28;20036;-55
2021/04/22 04:00:26;;;;;;;11.48;9.10;;;;;;;16.90;39.31;99453.16;5063014;28;20041;-54
2021/04/22 04:02:52;;;;;;;9.77;8.57;;;;;;;17.28;38.48;99452.53;5059586;28;20048;-54
2021/04/22 04:05:18;;;;;;;10.00;8.60;;;;;;;17.70;37.26;99447.69;5055099;28;20063;-55
2021/04/22 04:07:44;;;;;;;10.88;8.75;;;;;;;18.38;36.28;99455.16;5065339;28;20047;-55
2021/04/22 04:10:10;;;;;;;10.63;8.82;;;;;;;18.91;34.77;99446.94;5062842;28;20036;-51
2021/04/22 04:12:36;;;;;;;11.90;8.40;;;;;;;19.22;33.92;99439.66;5061433;28;20036;-52
2021/04/22 04:15:04;;;;;;;11.60;8.40;;;;;;;19.76;32.90;99451.09;5061212;28;20032;-50
2021/04/22 04:17:29;;;;;;;11.32;8.27;;;;;;;20.38;31.93;99446.06;5054055;28;20029;-55
2021/04/22 04:19:55;;;;;;;12.02;8.25;;;;;;;20.89;31.07;99452.25;5064950;28;20036;-57
2021/04/22 04:22:20;;;;;;;11.25;8.50;;;;;;;21.28;30.26;99453.50;5053492;28;20119;-53
2021/04/22 04:24:46;;;;;;;9.80;8.80;;;;;;;21.28;29.67;99407.22;5059273;28;20120;-51
2021/04/22 04:27:11;;;;;;;9.93;8.55;;;;;;;21.75;29.34;99437.31;5051198;28;20029;-52
2021/04/22 04:29:37;;;;;;;10.55;8.70;;;;;;;22.23;28.33;99449.94;5066072;28;20047;-56
2021/04/22 04:32:03;;;;;;;9.80;8.15;;;;;;;22.56;27.71;99451.03;5052747;28;20060;-50
2021/04/22 04:34:28;;;;;;;9.23;8.13;;;;;;;22.82;27.23;99451.16;5060750;28;20106;-53
2021/04/22 04:36:53;;;;;;;10.90;8.73;;;;;;;23.05;26.72;99450.69;5056715;28;20064;-56
2021/04/22 04:39:19;;;;;;;12.60;8.45;;;;;;;23.40;26.49;99452.25;5061744;28;20032;-56
2021/04/22 04:41:45;;;;;;;11.65;8.52;;;;;;;23.77;25.58;99447.00;5052392;28;20045;-58
2021/04/22 04:44:11;;;;;;;11.13;8.02;;;;;;;24.09;25.00;99466.13;5064452;28;20112;-58
2021/04/22 04:46:37;;;;;;;9.80;8.15;;;;;;;24.41;24.23;99478.94;5056987;28;20078;-50
2021/04/22 04:49:05;;;;;;;9.27;8.23;;;;;;;24.88;23.60;99468.41;5064290;28;20044;-53
2021/04/22 04:51:31;;;;;;;12.45;8.23;;;;;;;25.58;23.28;99476.47;5053366;28;20051;-56
2021/04/22 04:53:57;;;;;;;12.02;8.43;;;;;;;26.23;22.42;99478.47;5065402;28;20085;-54
2021/04/22 04:56:22;;;;;;;11.90;8.07;;;;;;;26.61;21.35;99434.34;5054630;28;20132;-56
2021/04/22 04:58:49;;;;;;;9.20;8.23;;;;;;;27.21;20.99;99471.66;5049806;28;20103;-57
2021/04/22 05:01:14;;;;;;;9.77;8.57;;;;;;;27.82;20.22;99481.41;5050627;28;20037;-53
2021/04/22 05:03:41;;;;;;;11.95;8.35;;;;;;;28.40;19.88;99459.28;5065657;28;20044;-53
2021/04/22 05:06:07;;;;;;;8.88;7.97;;;;;;;28.70;19.09;99460.84;5054264;28;20032;-55
2021/04/22 05:08:33;;;;;;;8.48;7.68;;;;;;;28.58;19.09;99466.47;5063450;28;20036;-55
2021/04/22 05:11:00;;;;;;;9.82;8.90;;;;;;;28.83;18.90;99473.47;5063915;28;20052;-57
2021/04/22 05:13:26;;;;;;;13.50;9.38;;;;;;;29.28;18.52;99460.53;5057776;28;20090;-59
2021/04/22 05:15:51;;;;;;;11.05;8.93;;;;;;;29.44;18.08;99464.31;5068836;28;20028;-53
2021/04/22 05:18:17;;;;;;;12.20;8.98;;;;;;;29.58;17.60;99470.28;5057293;28;20032;-58
2021/04/22 05:20:42;;;;;;;14.25;8.45;;;;;;;29.10;17.71;99472.72;5063031;28;20036;-56
2021/04/22 05:23:08;;;;;;;10.55;8.15;;;;;;;28.68;18.15;99467.69;5059894;28;20048;-56
2021/04/22 05:25:33;;;;;;;8.57;7.68;;;;;;;28.52;18.17;99472.97;5067591;28;20025;-53
2021/04/22 05:27:59;;;;;;;11.50;7.90;;;;;;;28.47;18.31;99473.72;5055378;28;20043;-54
2021/04/22 05:30:25;;;;;;;9.18;7.93;;;;;;;28.54;18.12;99464.47;5065788;28;20109;-60
2021/04/22 05:32:50;;;;;;;9.57;7.78;;;;;;;28.90;17.83;99473.25;5062106;28;20053;-59
2021/04/22 05:35:16;;;;;;;11.07;8.65;;;;;;;29.42;17.40;99473.94;5065552;28;20049;-59
2021/04/22 05:37:42;;;;;;;8.85;8.00;;;;;;;29.98;17.00;99467.38;5055244;28;20531;-57
2021/04/22 05:40:09;;;;;;;11.77;8.80;;;;;;;30.34;16.51;99473.22;5069512;28;20454;-58
2021/04/22 05:42:35;;;;;;;9.93;8.23;;;;;;;30.77;15.43;99471.34;5064160;28;20037;-58
2021/04/22 05:45:01;;;;;;;11.32;8.38;;;;;;;31.21;15.62;99452.78;5063562;28;20040;-56
2021/04/22 05:47:27;;;;;;;11.73;8.80;;;;;;;31.45;15.14;99464.19;5056625;28;20033;-59
2021/04/22 05:49:52;;;;;;;9.63;8.70;;;;;;;31.48;14.78;99471.97;5068606;28;20036;-56
2021/04/22 05:52:17;;;;;;;11.20;8.90;;;;;;;31.17;14.88;99463.50;5056699;28;20048;-58
2021/04/22 05:54:43;;;;;;;10.43;8.15;;;;;;;30.85;15.17;99444.28;5062539;28;20048;-57
2021/04/22 05:57:08;;;;;;;9.68;8.75;;;;;;;30.60;15.44;99459.59;5058952;28;20029;-57
2021/04/22 05:59:34;;;;;;;10.40;8.05;;;;;;;30.70;15.22;99456.09;5066275;28;20033;-55
2021/04/22 06:01:59;;;;;;;11.18;7.97;;;;;;;31.13;15.11;99467.09;5055095;28;20032;-57
2021/04/22 06:04:25;;;;;;;10.10;7.30;;;;;;;31.71;14.57;99455.13;5056086;28;20044;-59
2021/04/22 06:06:50;;;;;;;8.68;7.82;;;;;;;31.79;14.28;99446.31;5061444;28;20590;-58
2021/04/22 06:09:16;;;;;;;8.98;7.50;;;;;;;31.86;13.98;99465.44;5057302;28;20048;-60
2021/04/22 06:11:41;;;;;;;10.85;8.00;;;;;;;31.87;14.09;99453.25;5062607;28;20476;-53
2021/04/22 06:14:07;;;;;;;9.25;8.05;;;;;;;31.47;14.57;99458.41;5067966;28;20036;-59
2021/04/22 06:16:32;;;;;;;8.32;7.47;;;;;;;31.26;14.55;99461.09;5059035;28;20480;-55
2021/04/22 06:18:58;;;;;;;10.60;6.90;;;;;;;31.05;14.95;99462.91;5059931;28;20041;-54
2021/04/22 06:21:23;;;;;;;8.35;7.55;;;;;;;31.25;14.80;99469.69;5066190;28;20035;-59
2021/04/22 06:23:49;;;;;;;8.77;7.88;;;;;;;31.34;14.34;99432.09;5067939;28;20097;-54
2021/04/22 06:26:14;;;;;;;10.90;7.20;;;;;;;31.63;14.55;99390.94;5056310;28;20055;-55
2021/04/22 06:28:40;;;;;;;14.50;7.53;;;;;;;32.39;14.10;99484.59;5062228;28;20033;-57
2021/04/22 06:31:05;;;;;;;9.18;7.20;;;;;;;32.62;13.43;99471.28;5063007;28;20048;-58
2021/04/22 06:33:31;;;;;;;6.72;6.13;;;;;;;33.15;13.17;99495.00;5055669;28;20083;-59
2021/04/22 06:35:56;;;;;;;9.45;6.65;;;;;;;32.88;13.49;99485.91;5067890;28;20048;-56
2021/04/22 06:38:22;;;;;;;7.55;6.78;;;;;;;31.90;13.81;99481.22;5055274;28;20044;-59
2021/04/22 06:40:48;;;;;;;11.35;6.60;;;;;;;31.60;14.67;99499.41;5056882;28;20120;-60
2021/04/22 06:43:15;;;;;;;7.50;6.80;;;;;;;32.05;14.01;99485.09;5063485;28;20036;-60
2021/04/22 06:45:42;;;;;;;10.23;6.78;;;;;;;31.88;14.31;99480.66;5053256;28;20688;-60
2021/04/22 06:48:10;;;;;;;11.00;7.43;;;;;;;32.91;13.81;99501.97;5065903;28;20480;-59
2021/04/22 06:50:35;;;;;;;7.43;6.47;;;;;;;33.82;12.64;99493.84;5058661;28;20129;-54
2021/04/22 06:53:02;;;;;;;7.63;6.50;;;;;;;34.39;12.01;99497.06;5058453;28;20076;-58
2021/04/22 06:55:27;;;;;;;8.02;6.45;;;;;;;35.10;11.68;99493.06;5065785;28;20447;-48
2021/04/22 06:57:53;;;;;;;8.25;6.70;;;;;;;35.18;11.48;99498.81;5053906;28;20040;-51
2021/04/22 07:00:21;;;;;;;8.82;6.35;;;;;;;35.28;11.60;99506.19;5065250;28;20040;-58
2021/04/22 07:02:47;;;;;;;8.45;6.53;;;;;;;34.33;12.09;99524.06;5056301;28;20124;-59
2021/04/22 07:05:14;;;;;;;7.57;6.30;;;;;;;33.63;13.04;99480.63;5062786;28;20131;-60
2021/04/22 07:07:40;;;;;;;6.90;5.75;;;;;;;33.70;12.32;99513.63;5052452;28;20033;-58
2021/04/22 07:10:07;;;;;;;7.45;6.07;;;;;;;32.38;13.17;99507.88;5066921;28;20420;-59
2021/04/22 07:12:33;;;;;;;8.02;6.22;;;;;;;31.49;14.07;99512.38;5052278;28;20491;-61
2021/04/22 07:14:59;;;;;;;10.18;6.10;;;;;;;31.10;14.62;99517.38;5052328;28;20132;-61
2021/04/22 07:17:24;;;;;;;10.00;6.40;;;;;;;31.00;14.63;99510.72;5065168;28;20407;-60
2021/04/22 07:19:50;;;;;;;7.80;5.93;;;;;;;31.06;14.74;99512.41;5054287;28;20065;-59
2021/04/22 07:22:16;;;;;;;9.30;6.13;;;;;;;30.87;14.67;99476.09;5061060;28;20033;-61
2021/04/22 07:24:41;;;;;;;8.65;6.45;;;;;;;31.68;14.41;99497.19;5060290;28;20033;-52
2021/04/22 07:27:10;;;;;;;8.43;5.57;;;;;;;32.58;13.28;99508.97;5069980;28;20090;-53
2021/04/22 07:29:36;;;;;;;8.63;5.43;;;;;;;33.25;13.03;99503.25;5063805;28;20033;-57
2021/04/22 07:32:02;;;;;;;5.63;5.13;;;;;;;34.64;11.83;99503.53;5068396;28;20049;-54
2021/04/22 07:34:27;;;;;;;6.32;5.28;;;;;;;35.77;10.79;99501.38;5068896;28;20041;-54
2021/04/22 07:36:55;;;;;;;8.23;6.00;;;;;;;37.10;10.45;99495.00;5070345;28;20044;-60
2021/04/22 07:39:20;;;;;;;8.18;5.50;;;;;;;38.02;9.78;99503.38;5070686;28;20032;-59
2021/04/22 07:41:46;;;;;;;7.20;6.10;;;;;;;38.78;9.27;99503.72;5070498;28;20147;-58
2021/04/22 07:44:11;;;;;;;6.18;5.57;;;;;;;37.74;9.31;99503.44;5070530;28;20024;-57
2021/04/22 07:46:37;;;;;;;7.30;5.63;;;;;;;37.04;9.68;99500.69;5070300;28;20487;-56
2021/04/22 07:49:06;;;;;;;6.57;5.93;;;;;;;36.80;10.17;99509.25;5070657;28;20038;-56
2021/04/22 07:51:31;;;;;;;8.40;5.68;;;;;;;36.90;10.01;99497.06;5070503;28;20036;-56
2021/04/22 07:53:57;;;;;;;7.88;5.45;;;;;;;36.84;10.08;99493.53;5070359;28;20502;-57
2021/04/22 07:56:22;;;;;;;6.80;5.40;;;;;;;36.02;10.44;99518.88;5064873;28;20521;-57
2021/04/22 07:58:48;;;;;;;7.20;5.60;;;;;;;34.14;11.75;99500.91;5048774;28;20025;-54
2021/04/22 08:01:13;;;;;;;11.23;5.57;;;;;;;32.84;11.86;99500.59;5050505;28;20079;-55
2021/04/22 08:03:39;;;;;;;8.85;5.38;;;;;;;31.69;13.24;99515.47;5048434;28;20055;-56
2021/04/22 08:06:05;;;;;;;7.57;6.10;;;;;;;30.46;14.22;99514.44;5049594;28;20036;-57
2021/04/22 08:08:31;;;;;;;8.48;6.05;;;;;;;28.93;15.49;99489.28;5049524;28;20033;-52
2021/04/22 08:10:57;;;;;;;6.60;5.90;;;;;;;27.40;17.05;99489.91;5048952;28;20040;-56
2021/04/22 08:13:24;;;;;;;13.57;6.53;;;;;;;26.21;18.48;99523.69;5050352;28;20025;-53
2021/04/22 08:15:52;;;;;;;8.93;6.65;;;;;;;24.86;19.83;99541.72;5050083;28;20086;-52
2021/04/22 08:18:19;;;;;;;7.70;6.47;;;;;;;24.01;21.20;99529.28;5050001;28;20040;-54
2021/04/22 08:20:45;;;;;;;9.23;6.35;;;;;;;23.12;22.24;99538.03;5050190;28;20037;-53
2021/04/22 08:23:12;;;;;;;10.80;6.70;;;;;;;22.26;23.39;99546.03;5049585;28;20090;-58
2021/04/22 08:25:48;;;;;;;10.90;6.47;;;;;;;21.72;24.40;99548.63;5049415;28;20036;-54
2021/04/22 08:28:16;;;;;;;11.10;7.07;;;;;;;20.84;24.87;99480.06;5049412;28;20032;-56
2021/04/22 08:31:09;;;;;;;9.85;7.85;;;;;;;20.94;26.68;99537.72;5049294;28;20048;-56
2021/04/22 08:33:37;;;;;;;9.55;6.97;;;;;;;20.55;26.38;99538.22;5047121;28;20060;-56
2021/04/22 08:36:07;;;;;;;8.00;7.03;;;;;;;19.73;27.13;99474.06;5048883;28;20048;-52
2021/04/22 08:38:33;;;;;;;8.68;6.75;;;;;;;19.80;27.48;99532.03;5049489;28;20029;-56
2021/04/22 08:41:00;;;;;;;10.48;7.10;;;;;;;19.57;28.29;99540.31;5049229;28;20032;-54
2021/04/22 08:43:25;;;;;;;9.73;7.85;;;;;;;19.11;28.85;99549.50;5048594;28;20037;-56
2021/04/22 08:45:52;;;;;;;8.43;6.70;;;;;;;18.96;29.47;99559.50;5049085;28;20416;-58
2021/04/22 08:48:18;;;;;;;8.18;6.63;;;;;;;18.63;30.49;99560.66;5048965;28;20037;-60
2021/04/22 08:50:48;;;;;;;9.25;6.60;;;;;;;18.22;31.34;99559.13;5049539;28;20488;-53
2021/04/22 08:53:18;;;;;;;11.45;6.63;;;;;;;17.76;32.06;99559.88;5049788;28;20039;-51
2021/04/22 08:55:44;;;;;;;7.50;6.70;;;;;;;17.20;32.66;99536.44;5049988;28;20055;-56
2021/04/22 08:58:10;;;;;;;9.18;6.82;;;;;;;17.01;33.25;99567.44;5048046;28;20089;-57
2021/04/22 09:00:44;;;;;;;10.43;6.43;;;;;;;16.72;33.98;99569.63;5048839;28;20643;-53
2021/04/22 09:03:10;;;;;;;7.57;6.05;;;;;;;16.34;34.57;99544.97;5049404;28;20400;-52
2021/04/22 09:05:36;;;;;;;10.75;6.93;;;;;;;16.23;35.27;99564.22;5049248;28;20457;-52
2021/04/22 09:08:02;;;;;;;8.82;6.63;;;;;;;15.93;35.65;99546.63;5049611;28;20064;-57
2021/04/22 09:10:28;;;;;;;7.63;6.28;;;;;;;15.96;36.14;99566.22;5049400;28;20044;-54
2021/04/22 09:12:59;;;;;;;8.88;6.32;;;;;;;15.57;36.29;99522.53;5049160;28;20045;-54
2021/04/22 09:15:25;;;;;;;8.82;6.70;;;;;;;15.88;36.31;99575.09;5049653;28;20025;-57
2021/04/22 09:18:09;;;;;;;7.55;6.38;;;;;;;16.01;36.34;99566.53;5049655;28;20059;-53
2021/04/22 09:20:37;;;;;;;9.20;6.15;;;;;;;16.01;36.25;99561.16;5049785;28;20040;-55
2021/04/22 09:23:24;;;;;;;10.40;6.35;;;;;;;16.47;35.84;99575.03;5049606;28;20040;-56
2021/04/22 09:26:05;;;;;;;7.25;6.18;;;;;;;16.59;35.29;99540.41;5048675;28;20044;-58
2021/04/22 09:28:41;;;;;;;8.77;5.75;;;;;;;16.91;35.38;99578.41;5049179;28;20033;-58
2021/04/22 09:31:08;;;;;;;8.45;5.78;;;;;;;17.04;34.92;99573.31;5049135;28;20091;-55
2021/04/22 09:33:35;;;;;;;10.10;6.43;;;;;;;17.22;34.51;99574.97;5049248;28;20057;-53
2021/04/22 09:36:16;;;;;;;7.15;6.30;;;;;;;17.46;34.32;99590.28;5048891;28;20045;-59
2021/04/22 09:38:52;;;;;;;9.48;5.85;;;;;;;17.48;34.06;99563.03;5049472;28;20045;-53
2021/04/22 09:41:18;;;;;;;9.32;6.38;;;;;;;17.48;33.87;99560.34;5049036;28;20168;-57
2021/04/22 09:43:44;;;;;;;8.70;6.30;;;;;;;17.44;34.50;99569.84;5049183;28;20215;-55
2021/04/22 09:46:20;;;;;;;9.60;5.72;;;;;;;17.38;34.84;99576.78;5044042;28;20049;-54
2021/04/22 09:48:46;;;;;;;7.72;5.65;;;;;;;17.31;35.01;99575.78;5048622;28;20033;-55
2021/04/22 09:51:13;;;;;;;8.40;5.85;;;;;;;17.35;34.63;99566.31;5048688;28;20040;-55
2021/04/22 09:53:39;;;;;;;8.32;5.78;;;;;;;17.49;34.60;99578.25;5051295;28;20029;-58
2021/04/22 09:56:11;;;;;;;7.43;5.47;;;;;;;17.60;34.01;99534.59;5052689;28;20110;-58
2021/04/22 09:58:36;;;;;;;8.68;5.93;;;;;;;18.34;33.07;99581.22;5050005;28;20029;-56
2021/04/22 10:01:05;;;;;;;11.35;5.35;;;;;;;18.78;32.03;99585.91;5051743;28;20032;-55
2021/04/22 10:03:31;;;;;;;16.63;5.72;;;;;;;18.93;31.31;99566.13;5052525;28;20084;-60
2021/04/22 10:05:59;;;;;;;8.85;5.40;;;;;;;18.53;31.25;99535.66;5052627;28;20567;-58
2021/04/22 10:08:25;;;;;;;7.65;5.50;;;;;;;18.76;31.57;99585.25;5052154;28;20090;-57
2021/04/22 10:10:54;;;;;;;6.70;5.00;;;;;;;18.85;31.40;99574.34;5052235;28;20037;-55
2021/04/22 10:13:20;;;;;;;6.68;5.53;;;;;;;18.74;31.37;99570.22;5050930;28;20083;-54
2021/04/22 10:15:54;;;;;;;6.82;5.10;;;;;;;18.79;31.21;99570.50;5050566;28;20033;-55
2021/04/22 10:18:20;;;;;;;6.22;5.07;;;;;;;18.79;31.35;99579.47;5052420;28;20041;-59
2021/04/22 10:20:48;;;;;;;7.90;5.30;;;;;;;18.90;31.08;99574.63;5050048;28;20059;-58
2021/04/22 10:23:14;;;;;;;7.55;5.22;;;;;;;18.92;31.02;99588.84;5051820;28;20037;-58
2021/04/22 10:25:43;;;;;;;7.93;4.78;;;;;;;18.47;31.07;99535.38;5052351;28;20037;-58
2021/04/22 10:28:11;;;;;;;6.03;5.10;;;;;;;18.76;31.22;99579.00;5052413;28;20048;-55
2021/04/22 10:30:38;;;;;;;6.78;5.45;;;;;;;18.76;31.11;99577.13;5051811;28;20033;-54
2021/04/22 10:33:05;;;;;;;8.27;4.80;;;;;;;18.67;31.29;99589.09;5051908;28;20140;-60
2021/04/22 10:35:32;;;;;;;9.13;5.65;;;;;;;17.93;31.77;99510.00;5049993;28;20047;-57
2021/04/22 10:38:00;;;;;;;6.75;5.10;;;;;;;18.20;32.21;99575.53;5051886;28;20041;-58
2021/04/22 10:40:30;;;;;;;7.38;5.47;;;;;;;18.19;32.36;99598.25;5050975;28;20080;-54
2021/04/22 10:42:58;;;;;;;6.57;5.20;;;;;;;18.15;32.36;99583.38;5051025;28;20436;-59
2021/04/22 10:45:25;;;;;;;7.60;4.97;;;;;;;17.87;32.88;99556.78;5051101;28;20112;-60
2021/04/22 10:47:50;;;;;;;12.20;5.30;;;;;;;18.15;32.59;99577.97;5051535;28;20128;-54
2021/04/22 10:50:25;;;;;;;7.78;4.90;;;;;;;18.32;32.53;99581.38;5050779;28;20124;-59
2021/04/22 10:52:52;;;;;;;11.43;5.90;;;;;;;18.49;32.11;99567.72;5051783;28;20040;-55
2021/04/22 10:55:21;;;;;;;8.73;5.13;;;;;;;18.39;31.66;99527.31;5051563;28;20295;-56
2021/04/22 10:57:52;;;;;;;6.43;4.72;;;;;;;18.75;31.32;99580.88;5051207;28;20064;-58
2021/04/22 11:00:20;;;;;;;5.82;5.20;;;;;;;18.86;31.32;99576.03;5051741;28;20037;-57
2021/04/22 11:02:50;;;;;;;5.45;4.88;;;;;;;18.85;30.89;99579.78;5051394;28;20526;-57
2021/04/22 11:05:23;;;;;;;7.47;4.75;;;;;;;18.82;31.10;99572.84;5051440;28;20037;-60
2021/04/22 11:07:57;;;;;;;9.57;4.90;;;;;;;18.77;31.11;99573.38;5051693;28;20040;-57
2021/04/22 11:10:31;;;;;;;7.63;4.82;;;;;;;18.69;31.00;99575.31;5051771;28;20037;-61
2021/04/22 11:13:08;;;;;;;7.63;4.85;;;;;;;18.58;31.10;99582.06;5051525;28;20040;-60
2021/04/22 11:15:34;;;;;;;5.15;4.53;;;;;;;18.39;30.88;99559.84;5049973;28;20029;-58
2021/04/22 11:18:11;;;;;;;9.52;4.95;;;;;;;18.25;31.43;99547.91;5049495;28;20032;-58
2021/04/22 11:20:42;;;;;;;5.45;4.43;;;;;;;18.12;31.75;99570.19;5048869;28;20032;-56
2021/04/22 11:23:16;;;;;;;5.57;4.57;;;;;;;18.02;31.65;99558.72;5048632;28;20033;-61
2021/04/22 11:25:53;;;;;;;5.57;4.82;;;;;;;18.03;31.98;99577.53;5048787;28;20043;-61
2021/04/22 11:28:32;;;;;;;7.20;4.57;;;;;;;18.09;31.68;99565.13;5048597;28;20499;-57
2021/04/22 11:31:09;;;;;;;8.20;4.95;;;;;;;18.04;31.82;99567.53;5049215;28;20060;-60